Current Conditions
Partly Cloudy
Conditions



Pressure
1014.92 (mb) - 29.97 (inHG)
Visibility

9.0 (km) - 5.6 (miles)
   Temperature
19  °C
Temperature
16  °C
Dewpoint
83  %
 Humidity
   Wind Speed
10  km/h
5  kts
6  mph
2.7  m/s
   Wind Direction
N
45°
E
90°
135°
S
180°
225°
W
270°
315°
 240°

West South
West
   Airport Data
EHAM
Amsterdam Airport Schiphol
Metar :EHAM 170955Z 24005KT 9000 -DZ FEW015 BKN021 19/16 Q1015 NOSIG
Fri 17th September 11:55 am
   Raw Metar Info
Raw METAR is the most common format in the world for the transmission of observational weather data. It is highly standardized through the International Civil Aviation Organization (ICAO), which allows it to be understood throughout most of the world.
   API Info
Data Provided by
https://www.checkwx.com/weather/EHAM

Aviation Weather providing METAR, TAF, AIRMET, SIGMET and OUTLOOK Weather Reports
   © Info
CSS/SVG/PHP scripts were developed by weather34.com for use in the weather34 template © 2015-2021

Guide Info provided by Metar-Wikipedia